createdAt,value
2022-08-17T00:00:01.892Z,28.9
2022-08-17T00:05:02.322Z,28.9
2022-08-17T00:10:02.113Z,28.9
2022-08-17T00:15:02.316Z,28.9
2022-08-17T00:20:02.558Z,28.9
2022-08-17T00:25:02.553Z,28.9
2022-08-17T00:30:01.847Z,28.9
2022-08-17T00:35:01.871Z,28.9
2022-08-17T00:40:02.218Z,28.9
2022-08-17T00:45:02.331Z,28.9
2022-08-17T00:50:02.582Z,28.9
2022-08-17T00:55:02.503Z,28.9
2022-08-17T01:00:02.879Z,28.9
2022-08-17T01:05:02.130Z,28.9
2022-08-17T01:10:01.900Z,28.9
2022-08-17T01:15:02.093Z,28.9
2022-08-17T01:20:02.197Z,28.9
2022-08-17T01:25:02.332Z,28.9
2022-08-17T01:30:02.525Z,28.9
2022-08-17T01:35:01.631Z,28.9
2022-08-17T01:40:01.768Z,28.9
2022-08-17T01:45:02.332Z,28.9
2022-08-17T01:50:02.017Z,28.9
2022-08-17T01:55:02.173Z,28.9
2022-08-17T02:00:02.412Z,28.9
2022-08-17T02:05:02.448Z,28.9
2022-08-17T02:10:01.655Z,28.9
2022-08-17T02:15:01.742Z,28.9
2022-08-17T02:20:01.925Z,28.9
2022-08-17T02:25:02.565Z,28.9
2022-08-17T02:30:02.187Z,28.9
2022-08-17T02:35:02.378Z,28.9
2022-08-17T02:40:02.584Z,28.9
2022-08-17T02:45:02.112Z,28.9
2022-08-17T02:50:01.822Z,28.9
2022-08-17T02:55:02.080Z,28.9
2022-08-17T03:00:03.990Z,28.9
2022-08-17T03:05:03.472Z,28.9
2022-08-17T03:10:03.168Z,28.9
2022-08-17T03:15:03.218Z,28.9
2022-08-17T03:20:02.547Z,28.9
2022-08-17T03:25:02.662Z,28.9
2022-08-17T03:30:02.052Z,28.9
2022-08-17T03:35:03.072Z,28.9
2022-08-17T03:40:02.410Z,28.9
2022-08-17T03:45:02.562Z,28.9
2022-08-17T03:50:02.794Z,28.9
2022-08-17T03:55:02.098Z,28.9
2022-08-17T04:00:01.916Z,28.9
2022-08-17T04:05:02.821Z,28.9
2022-08-17T04:10:02.974Z,28.9
2022-08-17T04:15:02.424Z,28.9
2022-08-17T04:20:02.485Z,28.9
2022-08-17T04:25:02.131Z,28.9
2022-08-17T04:30:02.241Z,28.9
2022-08-17T04:35:03.210Z,28.9
2022-08-17T04:40:04.254Z,28.9
2022-08-17T04:45:02.271Z,28.9
2022-08-17T04:50:01.880Z,28.9
2022-08-17T04:55:02.233Z,28.9
2022-08-17T05:00:02.306Z,28.9
2022-08-17T05:05:03.115Z,28.9
2022-08-17T05:10:03.291Z,28.9
2022-08-17T05:15:02.462Z,28.9
2022-08-17T05:20:01.911Z,28.9
2022-08-17T05:25:02.672Z,28.9
2022-08-17T05:30:02.415Z,28.9
2022-08-17T05:35:03.018Z,28.9
2022-08-17T05:40:03.300Z,28.9
2022-08-17T05:45:03.515Z,28.9
2022-08-17T05:50:02.454Z,28.9
2022-08-17T05:55:01.840Z,28.9
2022-08-17T06:00:02.031Z,28.9
2022-08-17T06:05:02.948Z,28.9
2022-08-17T06:10:03.101Z,21
2022-08-17T06:15:03.428Z,21.1
2022-08-17T06:20:01.710Z,21.4
2022-08-17T06:25:01.841Z,21.5
2022-08-17T06:30:03.810Z,21.8
2022-08-17T06:35:03.318Z,22
2022-08-17T06:40:03.201Z,22.3
2022-08-17T06:45:03.806Z,22.5
2022-08-17T06:50:02.646Z,22.8
2022-08-17T06:55:01.758Z,23.1
2022-08-17T07:00:01.995Z,23.4
2022-08-17T07:05:03.181Z,23.6
2022-08-17T07:10:03.021Z,23.9
2022-08-17T07:15:03.244Z,24.2
2022-08-17T07:20:02.655Z,24.5
2022-08-17T07:25:01.674Z,24.8
2022-08-17T07:30:03.728Z,25
2022-08-17T07:35:02.649Z,25.2
2022-08-17T07:40:15.704Z,25.6
2022-08-17T07:45:02.522Z,25.7
2022-08-17T07:50:02.525Z,26
2022-08-17T07:55:02.633Z,26.1
2022-08-17T08:00:01.833Z,26.1
2022-08-17T08:05:02.732Z,26.1
2022-08-17T08:10:02.900Z,26.1
2022-08-17T08:15:02.483Z,26.2
2022-08-17T08:20:19.632Z,26.2
2022-08-17T08:25:02.867Z,26.3
2022-08-17T08:30:01.649Z,26.4
2022-08-17T08:35:03.637Z,26.5
2022-08-17T08:40:02.945Z,26.5
2022-08-17T08:45:04.270Z,26.6
2022-08-17T08:50:04.602Z,26.5
2022-08-17T08:55:02.660Z,26.5
2022-08-17T09:00:03.434Z,26.4
2022-08-17T09:05:18.039Z,26.3
2022-08-17T09:10:02.890Z,26.2
2022-08-17T09:15:02.883Z,26.1
2022-08-17T09:20:02.710Z,26.1
2022-08-17T09:25:02.420Z,26.1
2022-08-17T09:30:02.538Z,26.2
2022-08-17T09:35:02.776Z,26.4
2022-08-17T09:40:02.938Z,26.6
2022-08-17T09:45:02.923Z,26.8
2022-08-17T09:50:02.332Z,27.3
2022-08-17T09:55:02.362Z,27.9
2022-08-17T10:00:02.836Z,28.1
2022-08-17T10:05:03.378Z,28.7
2022-08-17T10:10:02.792Z,28.6
2022-08-17T10:15:07.856Z,28.6
2022-08-17T10:20:02.056Z,28.7
2022-08-17T10:25:21.958Z,28.6
2022-08-17T10:30:02.443Z,28.7
2022-08-17T10:35:03.047Z,29.2
2022-08-17T10:40:03.182Z,29.2
2022-08-17T10:45:03.435Z,29.1
2022-08-17T10:50:02.172Z,29.3
2022-08-17T10:55:03.235Z,29.5
2022-08-17T11:00:02.129Z,29.6
2022-08-17T11:05:02.979Z,29.5
2022-08-17T11:10:03.170Z,29.5
2022-08-17T11:15:03.380Z,29.4
2022-08-17T11:20:01.753Z,29.5
2022-08-17T11:25:01.878Z,29.7
2022-08-17T11:30:02.834Z,29.6
2022-08-17T11:35:03.248Z,29.4
2022-08-17T11:40:03.076Z,29
2022-08-17T11:45:03.542Z,28.9
2022-08-17T11:50:02.680Z,28.7
2022-08-17T11:55:17.900Z,28.6
2022-08-17T12:00:02.245Z,28.3
2022-08-17T12:05:03.136Z,28.1
2022-08-17T12:10:03.267Z,28
2022-08-17T12:15:11.698Z,27.9
2022-08-17T12:20:01.838Z,27.6
2022-08-17T12:25:02.001Z,27.6
2022-08-17T12:30:02.211Z,27.6
2022-08-17T12:35:03.230Z,27.6
2022-08-17T12:40:03.230Z,27.6
2022-08-17T12:45:03.506Z,27.6
2022-08-17T12:50:04.556Z,27.6
2022-08-17T12:55:01.917Z,27.6
2022-08-17T13:00:02.091Z,27.6
2022-08-17T13:05:03.419Z,27.6
2022-08-17T13:10:03.894Z,27.6
2022-08-17T13:15:03.736Z,27.6
2022-08-17T13:20:01.639Z,27.6
2022-08-17T13:25:03.879Z,27.6
2022-08-17T13:30:02.114Z,27.6
2022-08-17T13:35:11.878Z,27.6
2022-08-17T13:40:03.718Z,27.6
2022-08-17T13:45:32.281Z,27.6
2022-08-17T13:50:02.149Z,27.6
2022-08-17T13:55:02.257Z,27.6
2022-08-17T14:00:02.704Z,27.6
2022-08-17T14:05:06.085Z,27.6
2022-08-17T14:10:02.485Z,27.6
2022-08-17T14:15:03.294Z,27.6
2022-08-17T14:20:02.104Z,27.6
2022-08-17T14:25:02.247Z,27.6
2022-08-17T14:30:03.265Z,27.6
2022-08-17T14:35:03.388Z,27.6
2022-08-17T14:40:02.676Z,27.6
2022-08-17T14:45:02.714Z,27.6
2022-08-17T14:50:02.042Z,27.6
2022-08-17T14:55:02.199Z,27.6
2022-08-17T15:00:02.409Z,27.6
2022-08-17T15:05:03.526Z,27.6
2022-08-17T15:10:02.925Z,27.6
2022-08-17T15:15:04.187Z,27.6
2022-08-17T15:20:01.959Z,27.6
2022-08-17T15:25:02.141Z,27.6
2022-08-17T15:30:02.342Z,27.6
2022-08-17T15:35:03.188Z,27.6
2022-08-17T15:40:03.855Z,27.6
2022-08-17T15:45:02.618Z,27.6
2022-08-17T15:50:01.920Z,27.6
2022-08-17T15:55:02.048Z,27.6
2022-08-17T16:00:02.232Z,27.6
2022-08-17T16:05:03.270Z,27.6
2022-08-17T16:10:03.705Z,27.6
2022-08-17T16:15:02.594Z,27.6
2022-08-17T16:20:02.001Z,27.6
2022-08-17T16:25:02.158Z,27.6
2022-08-17T16:30:02.238Z,27.6
2022-08-17T16:35:03.031Z,27.6
2022-08-17T16:40:03.263Z,27.6
2022-08-17T16:45:03.815Z,27.6
2022-08-17T16:50:01.637Z,27.6
2022-08-17T16:55:01.806Z,27.6
2022-08-17T17:00:01.924Z,27.6
2022-08-17T17:05:03.033Z,27.6
2022-08-17T17:10:03.144Z,27.6
2022-08-17T17:15:03.879Z,27.6
2022-08-17T17:20:01.709Z,27.6
2022-08-17T17:25:01.846Z,27.6
2022-08-17T17:30:02.031Z,27.6
2022-08-17T17:35:03.016Z,27.6
2022-08-17T17:40:03.145Z,27.6
2022-08-17T17:45:03.460Z,27.6
2022-08-17T17:50:02.503Z,27.6
2022-08-17T17:55:01.839Z,27.6
2022-08-17T18:00:02.178Z,27.6
2022-08-17T18:05:03.174Z,27.6
2022-08-17T18:10:02.863Z,27.6
2022-08-17T18:15:02.928Z,27.6
2022-08-17T18:20:02.453Z,27.6
2022-08-17T18:25:02.560Z,27.6
2022-08-17T18:30:07.224Z,27.6
2022-08-17T18:35:02.579Z,27.6
2022-08-17T18:40:03.605Z,27.6
2022-08-17T18:45:03.233Z,27.6
2022-08-17T18:50:02.328Z,27.6
2022-08-17T18:55:02.538Z,27.6
2022-08-17T19:00:02.717Z,27.6
2022-08-17T19:05:02.561Z,27.6
2022-08-17T19:10:02.753Z,27.6
2022-08-17T19:15:03.012Z,27.6
2022-08-17T19:20:02.228Z,27.6
2022-08-17T19:25:02.889Z,27.6
2022-08-17T19:30:07.088Z,27.6
2022-08-17T19:35:02.545Z,27.6
2022-08-17T19:40:02.806Z,27.6
2022-08-17T19:45:02.916Z,27.6
2022-08-17T19:50:02.230Z,27.6
2022-08-17T19:55:02.352Z,27.6
2022-08-17T20:00:03.390Z,27.6
2022-08-17T20:05:02.452Z,27.6
2022-08-17T20:10:02.657Z,27.6
2022-08-17T20:15:02.824Z,27.6
2022-08-17T20:20:02.132Z,27.6
2022-08-17T20:25:02.306Z,27.6
2022-08-17T20:30:02.596Z,27.6
2022-08-17T20:35:03.388Z,27.6
2022-08-17T20:40:02.488Z,27.6
2022-08-17T20:45:02.745Z,27.6
2022-08-17T20:50:02.062Z,27.6
2022-08-17T20:55:02.246Z,27.6
2022-08-17T21:00:03.267Z,27.6
2022-08-17T21:05:03.984Z,27.6
2022-08-17T21:10:02.489Z,27.6
2022-08-17T21:15:03.452Z,27.6
2022-08-17T21:20:17.628Z,27.6
2022-08-17T21:25:02.131Z,27.6
2022-08-17T21:30:01.743Z,27.6
2022-08-17T21:35:02.714Z,27.6
2022-08-17T21:40:02.895Z,27.6
2022-08-17T21:45:03.137Z,27.6
2022-08-17T21:50:02.499Z,27.6
2022-08-17T21:55:01.960Z,27.6
2022-08-17T22:00:02.336Z,27.6
2022-08-17T22:05:02.313Z,27.6
2022-08-17T22:10:02.459Z,27.6
2022-08-17T22:15:02.225Z,27.6
2022-08-17T22:20:02.071Z,27.6
2022-08-17T22:25:02.307Z,27.6
2022-08-17T22:30:01.938Z,27.6
2022-08-17T22:35:02.081Z,27.6
2022-08-17T22:40:02.402Z,27.6
2022-08-17T22:45:02.467Z,27.6
2022-08-17T22:50:02.758Z,27.6
2022-08-17T22:55:03.648Z,27.6
2022-08-17T23:00:03.039Z,27.6
2022-08-17T23:05:03.271Z,27.6
2022-08-17T23:10:02.908Z,27.6
2022-08-17T23:15:01.658Z,27.6
2022-08-17T23:20:02.620Z,27.6
2022-08-17T23:25:02.022Z,27.6
2022-08-17T23:30:02.237Z,27.6
2022-08-17T23:35:03.400Z,27.6
2022-08-17T23:40:02.075Z,27.6
2022-08-17T23:45:02.190Z,27.6
2022-08-17T23:50:02.440Z,27.6
2022-08-17T23:55:01.687Z,27.6
